Time;durP1;ratioP1;P1;durP2;ratioP2;P2;SDS_P1;SDS_P2;PMS_P1;PMS_P2;Temp;Humidity;BMP_temperature;BMP_pressure;BME280_temperature;BME280_humidity;BME280_pressure;Samples;Min_cycle;Max_cycle;Signal;HPM_P1;HPM_P2
2022/08/02 00:00:44;;;;;;;3.50;3.08;;;23.00;83.30;;;;;;4988082;28;20030;-51
2022/08/02 00:03:10;;;;;;;4.53;3.20;;;23.00;83.30;;;;;;4992047;28;20482;-53
2022/08/02 00:05:36;;;;;;;3.65;3.25;;;23.00;83.30;;;;;;4992762;28;20489;-52
2022/08/02 00:08:02;;;;;;;3.33;3.00;;;22.90;83.40;;;;;;4992315;28;20030;-52
2022/08/02 00:10:27;;;;;;;3.95;3.30;;;22.90;83.50;;;;;;4993077;28;20065;-53
2022/08/02 00:12:53;;;;;;;4.05;3.28;;;22.90;83.50;;;;;;4991295;28;20057;-52
2022/08/02 00:15:19;;;;;;;3.53;3.13;;;22.90;83.60;;;;;;4992695;28;20430;-53
2022/08/02 00:17:45;;;;;;;3.70;3.22;;;22.90;83.80;;;;;;4992635;28;20106;-51
2022/08/02 00:20:11;;;;;;;4.30;2.83;;;22.90;83.90;;;;;;4993049;28;20030;-54
2022/08/02 00:22:37;;;;;;;3.50;3.20;;;22.90;84.00;;;;;;4990747;28;20421;-52
2022/08/02 00:25:03;;;;;;;3.33;3.00;;;22.90;84.10;;;;;;4991445;28;20039;-53
2022/08/02 00:27:29;;;;;;;3.13;2.83;;;22.90;84.00;;;;;;4991548;28;20045;-52
2022/08/02 00:29:55;;;;;;;3.25;2.95;;;22.90;84.10;;;;;;4991083;28;20027;-52
2022/08/02 00:32:22;;;;;;;3.08;2.80;;;22.90;84.20;;;;;;4985122;28;20046;-52
2022/08/02 00:34:47;;;;;;;2.90;2.60;;;22.90;84.20;;;;;;4979043;28;20019;-52
2022/08/02 00:37:13;;;;;;;3.78;3.15;;;22.90;84.30;;;;;;4992521;28;20478;-51
2022/08/02 00:39:41;;;;;;;3.53;3.22;;;22.90;84.30;;;;;;4991693;28;20597;-53
2022/08/02 00:42:06;;;;;;;3.08;2.70;;;22.90;84.50;;;;;;4991894;28;20042;-54
2022/08/02 00:44:32;;;;;;;3.55;3.25;;;22.80;84.30;;;;;;4996431;28;20022;-51
2022/08/02 00:46:58;;;;;;;3.78;2.88;;;22.80;84.20;;;;;;4988823;28;20073;-53
2022/08/02 00:49:23;;;;;;;3.80;3.03;;;22.80;84.30;;;;;;4992199;28;20440;-54
2022/08/02 00:51:49;;;;;;;3.50;3.20;;;22.80;84.50;;;;;;4991995;28;20034;-54
2022/08/02 00:54:15;;;;;;;2.90;2.70;;;22.80;84.40;;;;;;4988804;28;20114;-51
2022/08/02 00:56:40;;;;;;;3.58;3.08;;;22.80;84.40;;;;;;4990759;28;20023;-52
2022/08/02 00:59:06;;;;;;;3.80;3.40;;;22.80;84.30;;;;;;4991658;28;20106;-52
2022/08/02 01:01:38;;;;;;;2.88;2.67;;;22.80;84.30;;;;;;4994293;28;20391;-52
2022/08/02 01:04:08;;;;;;;3.40;2.85;;;22.80;84.40;;;;;;4994884;28;20029;-53
2022/08/02 01:06:35;;;;;;;3.42;3.13;;;22.80;84.30;;;;;;4995673;28;20026;-51
2022/08/02 01:09:01;;;;;;;3.30;3.00;;;22.80;84.20;;;;;;4995599;28;20034;-52
2022/08/02 01:11:28;;;;;;;3.28;2.90;;;22.80;84.30;;;;;;4995410;28;20490;-53
2022/08/02 01:14:05;;;;;;;3.67;3.00;;;22.80;84.40;;;;;;4994988;28;20033;-53
2022/08/02 01:16:36;;;;;;;3.15;2.85;;;22.80;84.40;;;;;;4995712;28;20101;-51
2022/08/02 01:19:29;;;;;;;;;;;22.80;84.40;;;;;;4986800;28;20109;-52
2022/08/02 01:22:16;;;;;;;3.05;2.75;;;22.80;84.30;;;;;;4994291;28;19913;-53
2022/08/02 01:25:20;;;;;;;3.00;2.70;;;22.70;84.20;;;;;;4995584;28;20030;-51
2022/08/02 01:28:22;;;;;;;3.20;2.88;;;22.70;84.00;;;;;;4917458;29;20040;-53
2022/08/02 01:30:55;;;;;;;3.17;2.88;;;22.70;84.20;;;;;;4994715;28;20038;-53
2022/08/02 01:33:23;;;;;;;3.22;2.88;;;22.70;84.10;;;;;;4990625;28;20146;-53
2022/08/02 01:35:54;;;;;;;3.03;2.72;;;22.70;84.10;;;;;;4995367;28;20022;-52
2022/08/02 01:38:32;;;;;;;3.85;3.17;;;22.70;84.00;;;;;;4993615;28;20473;-52
2022/08/02 01:41:01;;;;;;;2.90;2.60;;;22.70;84.00;;;;;;4982835;28;20026;-53
2022/08/02 01:43:29;;;;;;;3.00;2.72;;;22.70;84.10;;;;;;4987692;28;20037;-54
2022/08/02 01:45:56;;;;;;;3.10;2.80;;;22.70;84.00;;;;;;4993668;28;20038;-52
2022/08/02 01:48:25;;;;;;;3.22;2.92;;;22.70;83.90;;;;;;4988989;28;20054;-52
2022/08/02 01:50:52;;;;;;;3.28;2.97;;;22.70;83.90;;;;;;4991542;28;20034;-54
2022/08/02 01:53:19;;;;;;;3.30;2.85;;;22.70;83.90;;;;;;4989081;28;20019;-51
2022/08/02 01:55:48;;;;;;;4.38;3.50;;;22.70;83.90;;;;;;4989863;28;20029;-51
2022/08/02 01:58:16;;;;;;;4.10;3.10;;;22.80;83.90;;;;;;4994669;28;20019;-50
2022/08/02 02:00:43;;;;;;;4.30;3.20;;;22.70;83.80;;;;;;4994766;28;20098;-53
2022/08/02 02:03:19;;;;;;;4.20;3.67;;;22.70;83.60;;;;;;4994288;28;20026;-52
2022/08/02 02:05:47;;;;;;;3.70;3.33;;;22.70;83.80;;;;;;4992411;28;20109;-51
2022/08/02 02:08:14;;;;;;;3.28;2.97;;;22.70;83.70;;;;;;4994665;28;20030;-53
2022/08/02 02:10:43;;;;;;;3.38;3.08;;;22.70;83.80;;;;;;4992826;28;20025;-52
2022/08/02 02:13:15;;;;;;;3.63;3.17;;;22.70;84.00;;;;;;4992297;28;20512;-52
2022/08/02 02:15:46;;;;;;;3.75;2.97;;;22.70;84.10;;;;;;4994583;28;20026;-52
2022/08/02 02:18:22;;;;;;;3.75;3.33;;;22.60;84.10;;;;;;4980730;28;20073;-53
2022/08/02 02:20:48;;;;;;;3.53;3.22;;;22.60;84.20;;;;;;4993263;28;20035;-52
2022/08/02 02:23:13;;;;;;;4.47;3.40;;;22.60;84.40;;;;;;4993927;28;20093;-51
2022/08/02 02:25:43;;;;;;;4.40;3.05;;;22.60;84.40;;;;;;4994164;28;20030;-53
2022/08/02 02:28:23;;;;;;;3.42;3.13;;;22.50;84.60;;;;;;4992818;28;20037;-52
2022/08/02 02:30:52;;;;;;;4.03;3.20;;;22.50;84.80;;;;;;4983475;28;20043;-52
2022/08/02 02:33:19;;;;;;;3.35;3.05;;;22.50;84.90;;;;;;4991451;28;20049;-53
2022/08/02 02:35:48;;;;;;;4.05;3.15;;;22.40;84.90;;;;;;4993665;28;20472;-51
2022/08/02 02:38:16;;;;;;;3.38;3.05;;;22.40;85.00;;;;;;4992840;28;20663;-52
2022/08/02 02:40:45;;;;;;;3.00;2.70;;;22.40;85.20;;;;;;4994029;28;20033;-51
2022/08/02 02:43:12;;;;;;;3.65;3.05;;;22.40;85.30;;;;;;4994029;28;20030;-52
2022/08/02 02:45:39;;;;;;;3.65;3.30;;;22.40;85.50;;;;;;4991916;28;20470;-53
2022/08/02 02:48:07;;;;;;;3.17;2.88;;;22.40;85.60;;;;;;4994190;28;20058;-51
2022/08/02 02:50:34;;;;;;;3.75;3.45;;;22.40;85.60;;;;;;4993571;28;20452;-52
2022/08/02 02:53:00;;;;;;;3.88;3.20;;;22.40;85.80;;;;;;4993657;28;20050;-52
2022/08/02 02:55:27;;;;;;;3.95;3.20;;;22.50;86.10;;;;;;4992005;28;20026;-53
2022/08/02 02:57:54;;;;;;;3.92;3.50;;;22.40;85.80;;;;;;4993895;28;20524;-53
2022/08/02 03:01:26;;;;;;;3.70;3.15;;;22.50;85.90;;;;;;4992703;28;20018;-52
2022/08/02 03:03:08;;;;;;;3.88;3.00;;;22.50;85.60;;;;;;4983296;28;20034;-52
2022/08/02 03:05:34;;;;;;;4.25;3.63;;;22.50;85.50;;;;;;4988696;28;20033;-52
2022/08/02 03:08:00;;;;;;;4.05;2.85;;;22.50;85.30;;;;;;4993544;28;20034;-52
2022/08/02 03:10:26;;;;;;;3.85;3.08;;;22.50;85.20;;;;;;4993546;28;20440;-53
2022/08/02 03:12:52;;;;;;;3.20;2.88;;;22.60;85.20;;;;;;4990101;28;20653;-52
2022/08/02 03:15:20;;;;;;;3.03;2.72;;;22.60;85.20;;;;;;4992184;28;20026;-53
2022/08/02 03:17:45;;;;;;;3.28;2.97;;;22.70;85.10;;;;;;4991821;28;20080;-51
2022/08/02 03:20:14;;;;;;;3.50;3.10;;;22.70;85.00;;;;;;4991876;28;20105;-53
2022/08/02 03:22:40;;;;;;;3.88;3.50;;;22.80;85.00;;;;;;4992789;28;20058;-52
2022/08/02 03:25:08;;;;;;;3.20;2.90;;;22.80;84.90;;;;;;4993588;28;20545;-52
2022/08/02 03:27:34;;;;;;;4.70;4.00;;;22.80;84.90;;;;;;4993423;28;20113;-53
2022/08/02 03:29:59;;;;;;;3.90;3.40;;;22.90;84.60;;;;;;4992374;28;20157;-54
2022/08/02 03:32:25;;;;;;;3.40;3.03;;;23.00;84.50;;;;;;4993266;28;20508;-52
2022/08/02 03:34:51;;;;;;;3.10;2.80;;;23.00;84.50;;;;;;4991671;28;20041;-52
2022/08/02 03:37:18;;;;;;;3.90;2.95;;;23.10;84.10;;;;;;4991826;28;20026;-52
2022/08/02 03:39:44;;;;;;;3.85;3.45;;;23.20;83.80;;;;;;4992996;28;20031;-53
2022/08/02 03:42:10;;;;;;;3.45;3.15;;;23.40;83.80;;;;;;4989610;28;20041;-53
2022/08/02 03:44:38;;;;;;;3.83;3.42;;;23.50;83.70;;;;;;4998340;28;20026;-52
2022/08/02 03:47:05;;;;;;;3.53;3.08;;;23.60;83.60;;;;;;4991678;28;20022;-53
2022/08/02 03:49:32;;;;;;;3.90;3.25;;;23.70;83.80;;;;;;4989976;28;20073;-50
2022/08/02 03:51:59;;;;;;;3.78;3.20;;;23.70;83.80;;;;;;4988225;28;20057;-51
2022/08/02 03:54:25;;;;;;;4.05;3.65;;;23.90;83.50;;;;;;4992709;28;20534;-51
2022/08/02 03:56:51;;;;;;;4.00;3.42;;;24.00;83.20;;;;;;4991947;28;20027;-53
2022/08/02 03:59:17;;;;;;;3.20;2.90;;;24.20;83.40;;;;;;4978617;28;20488;-50
2022/08/02 04:01:43;;;;;;;3.22;2.92;;;24.30;82.70;;;;;;4992242;28;20038;-50
2022/08/02 04:04:09;;;;;;;2.78;2.58;;;24.50;82.50;;;;;;4992267;28;20058;-51
2022/08/02 04:06:34;;;;;;;4.32;3.60;;;24.70;82.80;;;;;;4992747;28;20063;-50
2022/08/02 04:09:00;;;;;;;4.85;4.10;;;25.10;83.00;;;;;;4985328;28;20031;-51
2022/08/02 04:11:29;;;;;;;3.63;3.33;;;25.60;82.50;;;;;;4992099;28;20042;-52
2022/08/02 04:13:55;;;;;;;3.72;3.08;;;26.40;81.80;;;;;;4992531;28;20023;-51
2022/08/02 04:16:26;;;;;;;3.78;3.38;;;27.20;80.40;;;;;;4991861;28;20070;-51
2022/08/02 04:18:56;;;;;;;3.88;3.50;;;28.10;78.60;;;;;;4984357;28;20078;-52
2022/08/02 04:21:24;;;;;;;;;;;29.10;76.80;;;;;;4989321;28;20445;-51
2022/08/02 04:23:51;;;;;;;2.70;2.50;;;29.90;75.30;;;;;;4991488;28;19910;-52
2022/08/02 04:26:17;;;;;;;2.75;2.28;;;30.70;74.10;;;;;;4978403;28;20035;-51
2022/08/02 04:28:44;;;;;;;2.53;2.33;;;31.20;71.60;;;;;;4992618;28;20022;-51
2022/08/02 04:31:10;;;;;;;3.55;3.03;;;31.50;69.80;;;;;;4990908;28;20034;-52
2022/08/02 04:33:36;;;;;;;3.08;2.78;;;31.40;68.40;;;;;;4991786;28;20153;-51
2022/08/02 04:36:04;;;;;;;3.10;2.80;;;31.20;67.70;;;;;;4994183;28;20023;-51
2022/08/02 04:38:29;;;;;;;2.80;2.55;;;30.80;67.40;;;;;;4994049;28;20030;-51
2022/08/02 04:40:55;;;;;;;3.22;2.88;;;30.30;67.50;;;;;;4996222;28;20038;-53
2022/08/02 04:43:22;;;;;;;3.95;2.50;;;29.80;67.60;;;;;;4995896;28;20034;-54
2022/08/02 04:45:53;;;;;;;2.45;2.25;;;29.30;67.90;;;;;;4991254;28;20105;-52
2022/08/02 04:48:20;;;;;;;2.97;2.65;;;28.80;68.20;;;;;;4986353;28;20097;-55
2022/08/02 04:50:45;;;;;;;3.00;2.70;;;28.40;68.70;;;;;;4995764;28;20026;-54
2022/08/02 04:53:11;;;;;;;3.00;2.70;;;28.00;69.10;;;;;;4993107;28;20057;-53
2022/08/02 04:55:37;;;;;;;2.60;2.40;;;27.70;69.50;;;;;;4992751;28;20084;-54
2022/08/02 04:58:02;;;;;;;3.97;3.05;;;27.40;70.00;;;;;;4996014;28;20604;-52
2022/08/02 05:00:28;;;;;;;3.38;2.88;;;27.10;70.30;;;;;;4996150;28;20033;-51
2022/08/02 05:02:58;;;;;;;3.28;2.97;;;26.80;70.80;;;;;;4996172;28;20031;-54
2022/08/02 05:05:24;;;;;;;3.35;3.00;;;26.60;71.00;;;;;;4997616;28;20022;-52
2022/08/02 05:07:50;;;;;;;3.28;2.97;;;26.40;71.50;;;;;;4993988;28;20027;-54
2022/08/02 05:10:16;;;;;;;3.63;3.17;;;26.40;71.90;;;;;;4995697;28;20041;-53
2022/08/02 05:12:42;;;;;;;3.95;3.38;;;26.20;72.00;;;;;;4993377;28;20386;-52
2022/08/02 05:15:10;;;;;;;3.95;3.35;;;26.10;72.10;;;;;;4994990;28;20145;-52
2022/08/02 05:17:36;;;;;;;2.90;2.70;;;26.00;72.20;;;;;;4995872;28;20041;-54
2022/08/02 05:20:02;;;;;;;4.63;3.28;;;25.80;72.30;;;;;;4995397;28;20386;-53
2022/08/02 05:22:28;;;;;;;3.35;3.05;;;25.70;72.50;;;;;;4995342;28;20049;-53
2022/08/02 05:24:53;;;;;;;3.75;3.22;;;25.60;72.70;;;;;;4994112;28;20038;-51
2022/08/02 05:27:19;;;;;;;3.85;3.30;;;25.50;72.90;;;;;;4994834;28;20026;-53
2022/08/02 05:29:45;;;;;;;4.20;3.40;;;25.40;73.20;;;;;;4989947;28;20050;-53
2022/08/02 05:32:10;;;;;;;3.50;3.20;;;25.30;73.40;;;;;;4985979;28;20122;-53
2022/08/02 05:34:36;;;;;;;3.85;3.42;;;25.20;73.80;;;;;;4982208;28;20490;-53
2022/08/02 05:37:02;;;;;;;3.40;3.10;;;25.20;74.00;;;;;;4981041;28;20419;-54
2022/08/02 05:39:27;;;;;;;4.57;3.55;;;25.10;74.20;;;;;;4982710;28;20560;-52
2022/08/02 05:41:53;;;;;;;3.40;3.10;;;25.10;74.50;;;;;;4984101;28;20057;-55
2022/08/02 05:44:18;;;;;;;3.35;3.05;;;25.10;74.60;;;;;;4986726;28;20080;-55
2022/08/02 05:46:44;;;;;;;3.05;2.85;;;25.10;74.80;;;;;;4988525;28;20164;-53
2022/08/02 05:49:10;;;;;;;3.75;2.97;;;25.00;74.80;;;;;;4983846;28;20494;-56
2022/08/02 05:51:55;;;;;;;3.35;3.00;;;25.00;74.90;;;;;;4969304;28;20034;-54
2022/08/02 05:54:49;;;;;;;4.00;3.45;;;25.00;74.80;;;;;;4968319;28;20050;-54
2022/08/02 05:57:20;;;;;;;2.85;2.63;;;24.90;74.90;;;;;;4969637;28;20039;-55
2022/08/02 05:59:50;;;;;;;3.55;3.25;;;24.90;74.90;;;;;;4970997;28;20042;-52
2022/08/02 06:02:22;;;;;;;4.55;2.92;;;24.90;75.20;;;;;;4978548;28;20538;-54
2022/08/02 06:05:00;;;;;;;4.38;3.58;;;24.80;75.10;;;;;;4980624;28;20050;-53
2022/08/02 06:07:26;;;;;;;3.60;3.22;;;24.80;75.10;;;;;;4984911;28;20102;-53
2022/08/02 06:09:52;;;;;;;3.05;2.75;;;24.80;75.20;;;;;;4986006;28;20435;-53
2022/08/02 06:12:18;;;;;;;3.15;2.80;;;24.70;75.10;;;;;;4982394;28;20050;-53
2022/08/02 06:14:45;;;;;;;3.10;2.80;;;24.70;75.20;;;;;;4973768;28;20041;-53
2022/08/02 06:17:13;;;;;;;3.85;3.00;;;24.70;75.30;;;;;;4979084;28;20114;-54
2022/08/02 06:19:40;;;;;;;4.40;3.50;;;24.60;75.30;;;;;;4976673;28;20034;-52
2022/08/02 06:22:15;;;;;;;4.10;3.33;;;24.60;75.50;;;;;;4978447;28;20141;-53
2022/08/02 06:24:45;;;;;;;3.15;2.90;;;24.50;75.40;;;;;;4982907;28;20172;-55
2022/08/02 06:27:14;;;;;;;3.28;2.97;;;24.50;75.60;;;;;;4982102;28;20033;-52
2022/08/02 06:29:42;;;;;;;3.53;3.22;;;24.50;75.70;;;;;;4982241;28;22691;-53
2022/08/02 06:32:08;;;;;;;3.83;3.38;;;24.40;76.00;;;;;;4975979;28;20397;-55
2022/08/02 06:34:40;;;;;;;3.80;3.08;;;24.50;76.00;;;;;;4974411;28;20018;-52
2022/08/02 06:37:37;;;;;;;4.20;3.40;;;24.40;76.10;;;;;;4976944;28;20037;-55
2022/08/02 06:40:31;;;;;;;3.92;3.50;;;24.40;76.30;;;;;;4975080;28;20115;-54
2022/08/02 06:43:04;;;;;;;3.80;3.40;;;24.40;76.10;;;;;;4972172;28;20461;-53
2022/08/02 06:45:31;;;;;;;4.45;3.67;;;24.30;76.00;;;;;;4972951;28;20030;-53
2022/08/02 06:47:57;;;;;;;5.22;3.33;;;24.30;76.10;;;;;;4975599;28;20100;-52
2022/08/02 06:50:22;;;;;;;3.30;3.00;;;24.30;76.10;;;;;;4988202;28;20065;-52
2022/08/02 06:52:48;;;;;;;3.50;3.10;;;24.20;75.90;;;;;;4977118;28;20041;-53
2022/08/02 06:55:15;;;;;;;3.80;3.40;;;24.20;75.90;;;;;;4965070;28;20768;-51
2022/08/02 06:57:41;;;;;;;3.53;3.20;;;24.20;76.00;;;;;;4966595;28;20062;-53
2022/08/02 07:00:08;;;;;;;3.95;3.20;;;24.20;75.90;;;;;;4970911;28;20026;-56
2022/08/02 07:02:35;;;;;;;3.58;3.22;;;24.10;75.90;;;;;;4952066;28;20498;-56
2022/08/02 07:05:02;;;;;;;4.13;3.20;;;24.10;75.90;;;;;;4961093;28;20041;-56
2022/08/02 07:07:27;;;;;;;3.42;2.92;;;24.10;75.80;;;;;;4954182;28;20045;-55
2022/08/02 07:09:53;;;;;;;4.45;3.60;;;24.10;75.80;;;;;;4967492;28;20038;-53
2022/08/02 07:12:19;;;;;;;3.80;3.40;;;24.10;75.90;;;;;;4967167;28;20043;-55
2022/08/02 07:14:44;;;;;;;3.05;2.75;;;24.10;75.80;;;;;;4960339;28;20154;-56
2022/08/02 07:17:12;;;;;;;3.70;3.30;;;24.10;75.90;;;;;;4961537;28;22279;-53
2022/08/02 07:19:37;;;;;;;3.92;3.40;;;24.10;75.80;;;;;;4966673;28;20056;-55
2022/08/02 07:22:03;;;;;;;3.92;3.15;;;24.10;75.90;;;;;;4966993;28;20038;-54
2022/08/02 07:24:29;;;;;;;3.40;2.97;;;24.10;75.80;;;;;;4961433;28;20026;-54
2022/08/02 07:26:55;;;;;;;3.60;3.22;;;24.10;75.90;;;;;;4966764;28;20399;-56
2022/08/02 07:29:20;;;;;;;3.75;2.67;;;24.10;75.90;;;;;;4962797;28;20598;-53
2022/08/02 07:31:46;;;;;;;4.10;3.30;;;24.00;76.00;;;;;;4971267;28;20121;-53
2022/08/02 07:34:12;;;;;;;3.30;3.00;;;24.00;76.00;;;;;;4965912;28;20034;-55
2022/08/02 07:36:37;;;;;;;3.35;3.03;;;24.00;75.90;;;;;;4965370;28;20069;-55
2022/08/02 07:39:03;;;;;;;3.72;3.20;;;24.00;76.00;;;;;;4964163;28;20041;-54
2022/08/02 07:41:29;;;;;;;3.92;3.20;;;24.00;75.90;;;;;;4954445;28;20098;-53
2022/08/02 07:43:54;;;;;;;3.45;3.15;;;24.00;75.90;;;;;;4962243;28;20045;-53
2022/08/02 07:46:20;;;;;;;4.75;3.45;;;24.00;75.90;;;;;;4967946;28;20582;-53
2022/08/02 07:48:47;;;;;;;4.25;3.50;;;24.00;76.00;;;;;;4969065;28;20026;-54
2022/08/02 07:51:13;;;;;;;4.32;3.50;;;24.10;75.80;;;;;;4969498;28;20034;-55
2022/08/02 07:53:39;;;;;;;4.32;3.45;;;24.10;75.90;;;;;;4968275;28;20118;-54
2022/08/02 07:56:04;;;;;;;3.58;3.20;;;24.10;75.70;;;;;;4964407;28;20077;-56
2022/08/02 07:58:30;;;;;;;3.47;3.17;;;24.10;75.90;;;;;;4961915;28;20034;-54
2022/08/02 08:00:56;;;;;;;4.10;3.40;;;24.10;75.90;;;;;;4962757;28;20442;-56
2022/08/02 08:03:21;;;;;;;3.58;3.28;;;24.10;75.80;;;;;;4965969;28;20030;-52
2022/08/02 08:05:47;;;;;;;3.80;3.38;;;24.10;75.80;;;;;;4963750;28;20034;-54
2022/08/02 08:08:13;;;;;;;2.92;2.65;;;24.20;75.80;;;;;;4968380;28;20045;-56
2022/08/02 08:10:41;;;;;;;4.03;3.40;;;24.20;75.80;;;;;;4966495;28;20035;-53
2022/08/02 08:13:07;;;;;;;3.90;3.40;;;24.20;75.80;;;;;;4968216;28;20097;-55
2022/08/02 08:15:33;;;;;;;4.72;3.92;;;24.20;75.80;;;;;;4960386;28;20034;-55
2022/08/02 08:17:58;;;;;;;4.97;3.80;;;24.20;75.70;;;;;;4962754;28;20035;-55
2022/08/02 08:20:24;;;;;;;4.35;3.45;;;24.20;75.60;;;;;;4966339;28;20026;-53
2022/08/02 08:22:49;;;;;;;3.88;3.42;;;24.30;75.60;;;;;;4960395;28;20034;-55
2022/08/02 08:25:15;;;;;;;4.07;3.63;;;24.30;75.60;;;;;;4956063;28;20045;-54
2022/08/02 08:27:51;;;;;;;3.85;3.17;;;24.30;75.50;;;;;;4954691;28;20034;-54
2022/08/02 08:30:18;;;;;;;3.20;2.90;;;24.30;75.50;;;;;;4960571;28;20041;-56
2022/08/02 08:32:45;;;;;;;3.58;3.28;;;24.30;75.40;;;;;;4955486;28;20246;-56
2022/08/02 08:35:11;;;;;;;3.92;3.53;;;24.30;75.40;;;;;;4961289;28;20030;-56
2022/08/02 08:37:37;;;;;;;3.67;3.10;;;24.40;75.40;;;;;;4959553;28;20418;-53
2022/08/02 08:40:11;;;;;;;4.25;3.80;;;24.40;75.30;;;;;;4947058;28;20026;-53
2022/08/02 08:42:38;;;;;;;4.38;3.95;;;24.40;75.50;;;;;;4958734;28;20180;-54
2022/08/02 08:45:06;;;;;;;4.88;3.88;;;24.40;75.40;;;;;;4952131;28;20030;-54
2022/08/02 08:47:40;;;;;;;4.50;3.92;;;24.40;75.40;;;;;;4961034;28;20034;-55
2022/08/02 08:50:11;;;;;;;5.05;4.18;;;24.40;75.40;;;;;;4954291;28;20248;-55
2022/08/02 08:52:51;;;;;;;4.65;4.05;;;24.40;75.30;;;;;;4950877;28;20074;-54
2022/08/02 08:55:21;;;;;;;4.25;3.85;;;24.50;75.50;;;;;;4954280;28;20030;-54
2022/08/02 08:57:47;;;;;;;4.97;4.20;;;24.50;75.40;;;;;;4960614;28;20039;-53
2022/08/02 09:00:15;;;;;;;4.65;3.88;;;24.50;75.60;;;;;;4955592;28;20038;-54
2022/08/02 09:02:41;;;;;;;4.63;4.07;;;24.50;75.60;;;;;;4954653;28;20034;-54
2022/08/02 09:05:12;;;;;;;4.70;3.85;;;24.50;75.60;;;;;;4961079;28;20042;-56
2022/08/02 09:07:38;;;;;;;;;;;24.60;75.80;;;;;;4966692;28;20053;-55
2022/08/02 09:10:38;;;;;;;4.82;4.00;;;24.60;75.80;;;;;;4933923;28;19921;-55
2022/08/02 09:13:21;;;;;;;4.28;3.88;;;24.70;75.80;;;;;;4960681;28;20042;-55
2022/08/02 09:16:04;;;;;;;4.45;4.00;;;24.90;75.70;;;;;;4961425;28;23178;-55
2022/08/02 09:18:33;;;;;;;4.63;4.13;;;24.90;75.70;;;;;;4965656;28;20057;-53
2022/08/02 09:21:01;;;;;;;5.53;4.65;;;25.00;75.50;;;;;;4959752;28;20037;-56
2022/08/02 09:23:35;;;;;;;4.90;4.28;;;25.10;75.40;;;;;;4950280;28;20034;-56
2022/08/02 09:26:06;;;;;;;5.00;4.15;;;25.20;75.30;;;;;;4967467;28;20034;-56
2022/08/02 09:28:35;;;;;;;5.55;4.28;;;25.20;75.10;;;;;;4965845;28;20362;-56
2022/08/02 09:31:09;;;;;;;4.47;4.07;;;25.30;75.00;;;;;;4964452;28;20657;-55
2022/08/02 09:33:37;;;;;;;4.97;4.38;;;25.40;74.90;;;;;;4957844;28;20035;-54
2022/08/02 09:36:05;;;;;;;5.80;5.05;;;25.40;74.90;;;;;;4962555;28;20030;-54
2022/08/02 09:38:31;;;;;;;8.05;5.00;;;25.40;74.70;;;;;;4965078;28;20045;-54
2022/08/02 09:40:58;;;;;;;5.50;4.90;;;25.40;74.80;;;;;;4962377;28;20029;-54
2022/08/02 09:43:42;;;;;;;6.32;5.30;;;25.40;74.90;;;;;;4966349;28;20109;-53
2022/08/02 09:46:17;;;;;;;5.90;5.30;;;25.40;75.00;;;;;;4959011;28;20037;-55
2022/08/02 09:48:51;;;;;;;5.55;4.82;;;25.30;75.20;;;;;;4956758;28;20037;-55
2022/08/02 09:51:19;;;;;;;5.65;5.05;;;25.30;75.30;;;;;;4960232;28;20710;-53
2022/08/02 09:53:53;;;;;;;5.82;5.15;;;25.20;75.60;;;;;;4963082;28;20169;-55
2022/08/02 09:56:20;;;;;;;4.82;4.30;;;25.20;75.80;;;;;;4956596;28;20034;-55
2022/08/02 09:58:47;;;;;;;5.30;4.80;;;25.20;76.00;;;;;;4955335;28;20109;-55
2022/08/02 10:01:13;;;;;;;4.72;4.10;;;25.20;76.10;;;;;;4954237;28;20043;-53
2022/08/02 10:03:54;;;;;;;4.90;4.40;;;25.10;76.20;;;;;;4955161;28;20239;-56
2022/08/02 10:06:20;;;;;;;5.05;4.57;;;25.10;76.30;;;;;;4956798;28;20165;-56
2022/08/02 10:08:46;;;;;;;5.35;4.72;;;25.00;76.40;;;;;;4952014;28;20046;-53
2022/08/02 10:11:14;;;;;;;5.07;4.50;;;25.00;76.60;;;;;;4953529;28;20042;-54
2022/08/02 10:13:41;;;;;;;4.63;4.22;;;24.90;76.60;;;;;;4956226;28;20409;-54
2022/08/02 10:16:06;;;;;;;4.90;4.40;;;24.90;76.80;;;;;;4950680;28;20026;-55
2022/08/02 10:18:32;;;;;;;4.88;4.25;;;24.90;76.90;;;;;;4959612;28;21114;-52
2022/08/02 10:21:01;;;;;;;5.38;4.80;;;24.80;77.10;;;;;;4961429;28;20034;-53
2022/08/02 10:23:32;;;;;;;5.47;4.53;;;24.80;77.00;;;;;;4962247;28;20037;-54
2022/08/02 10:26:02;;;;;;;4.50;4.10;;;24.80;77.10;;;;;;4961569;28;21038;-53
2022/08/02 10:28:31;;;;;;;5.22;4.07;;;24.70;77.20;;;;;;4961704;28;20045;-53
2022/08/02 10:30:59;;;;;;;4.78;4.22;;;24.70;77.30;;;;;;4960434;28;20049;-54
2022/08/02 10:33:27;;;;;;;4.85;4.35;;;24.70;77.50;;;;;;4953372;28;20034;-54
2022/08/02 10:35:58;;;;;;;5.28;4.78;;;24.70;77.70;;;;;;4965506;28;20041;-55
2022/08/02 10:38:26;;;;;;;;;;;24.60;77.70;;;;;;4954342;28;20101;-53
2022/08/02 10:40:54;;;;;;;4.70;3.90;;;24.60;78.00;;;;;;4963126;28;20732;-54
2022/08/02 10:43:31;;;;;;;4.70;4.20;;;24.60;77.70;;;;;;4963942;28;20773;-53
2022/08/02 10:46:22;;;;;;;5.30;4.75;;;24.50;77.90;;;;;;4969078;28;20532;-54
2022/08/02 10:49:11;;;;;;;5.28;4.78;;;24.40;77.90;;;;;;4965367;28;20454;-55
2022/08/02 10:52:01;;;;;;;5.20;4.50;;;24.40;78.10;;;;;;4962690;28;20089;-56
2022/08/02 10:54:30;;;;;;;5.63;4.95;;;24.40;78.10;;;;;;4968616;28;20093;-56
2022/08/02 10:56:58;;;;;;;5.18;4.68;;;24.30;78.20;;;;;;4962340;28;20497;-54
2022/08/02 10:59:29;;;;;;;5.75;5.15;;;24.20;78.20;;;;;;4956949;28;20034;-54
2022/08/02 11:02:00;;;;;;;5.65;5.05;;;24.20;78.40;;;;;;4952132;28;20050;-52
2022/08/02 11:04:38;;;;;;;5.32;4.60;;;24.20;78.60;;;;;;4959142;28;20241;-55
2022/08/02 11:07:17;;;;;;;4.68;4.18;;;24.10;78.80;;;;;;4967707;28;20034;-54
2022/08/02 11:09:48;;;;;;;5.10;4.57;;;24.10;79.10;;;;;;4947557;28;20473;-53
2022/08/02 11:12:16;;;;;;;4.68;4.20;;;24.00;79.10;;;;;;4961639;28;20051;-53
2022/08/02 11:14:45;;;;;;;4.60;4.13;;;24.00;79.40;;;;;;4962170;28;20077;-54
2022/08/02 11:17:16;;;;;;;4.25;3.78;;;24.00;79.50;;;;;;4962396;28;20488;-55
2022/08/02 11:20:09;;;;;;;4.88;4.30;;;23.90;79.70;;;;;;4961716;28;20579;-56
2022/08/02 11:22:37;;;;;;;4.45;4.05;;;23.90;79.80;;;;;;4962614;28;20030;-55
2022/08/02 11:25:35;;;;;;;4.60;4.13;;;23.90;80.00;;;;;;4962850;28;20042;-56
2022/08/02 11:28:10;;;;;;;4.28;3.88;;;23.90;80.10;;;;;;4914188;28;20056;-53
2022/08/02 11:30:36;;;;;;;4.30;3.90;;;23.90;80.00;;;;;;4963311;28;20503;-53
2022/08/02 11:33:02;;;;;;;4.40;4.00;;;23.90;80.10;;;;;;4960315;28;20121;-53
2022/08/02 11:35:38;;;;;;;4.07;3.67;;;23.80;80.40;;;;;;4954086;28;20089;-57
2022/08/02 11:38:20;;;;;;;4.30;3.80;;;23.80;80.30;;;;;;4958942;28;20026;-53
2022/08/02 11:40:48;;;;;;;4.15;3.70;;;23.80;80.40;;;;;;4962230;28;20046;-55
2022/08/02 11:43:22;;;;;;;4.22;3.83;;;23.80;80.70;;;;;;4942345;28;20030;-52
2022/08/02 11:45:51;;;;;;;4.60;3.92;;;23.80;80.80;;;;;;4958584;28;20490;-55
2022/08/02 11:48:31;;;;;;;4.57;4.10;;;23.80;81.00;;;;;;4953118;28;20033;-54
2022/08/02 11:51:03;;;;;;;4.18;3.78;;;23.80;80.90;;;;;;4952198;28;20454;-53
2022/08/02 11:53:39;;;;;;;5.47;4.30;;;23.70;80.60;;;;;;4960367;28;20030;-54
2022/08/02 11:56:05;;;;;;;4.50;4.05;;;23.70;80.80;;;;;;4961660;28;20124;-53
2022/08/02 11:58:30;;;;;;;4.55;4.07;;;23.70;80.70;;;;;;4957730;28;20556;-54
2022/08/02 12:00:56;;;;;;;4.32;3.50;;;23.70;80.90;;;;;;4936543;28;20039;-57
2022/08/02 12:03:22;;;;;;;4.20;3.72;;;23.60;80.80;;;;;;4952214;28;20072;-56
2022/08/02 12:05:50;;;;;;;4.47;3.60;;;23.60;80.90;;;;;;4966418;28;20027;-56
2022/08/02 12:08:17;;;;;;;4.97;3.63;;;23.70;81.10;;;;;;4955458;28;20039;-57
2022/08/02 12:10:48;;;;;;;4.68;4.18;;;23.60;81.10;;;;;;4956664;28;20105;-56
2022/08/02 12:13:13;;;;;;;4.60;3.65;;;23.60;81.10;;;;;;4953162;28;20057;-57
2022/08/02 12:15:45;;;;;;;4.13;3.72;;;23.60;81.00;;;;;;4950043;28;20037;-55
2022/08/02 12:20:58;;;;;;;3.72;3.40;;;23.60;81.30;;;;;;4960021;28;20084;-54
2022/08/02 12:23:24;;;;;;;4.28;3.85;;;23.60;81.80;;;;;;4961057;28;20814;-55
2022/08/02 12:26:03;;;;;;;4.18;3.78;;;23.50;81.20;;;;;;4962040;28;20031;-56
2022/08/02 12:28:33;;;;;;;3.53;3.20;;;23.50;81.50;;;;;;4961445;28;20133;-55
2022/08/02 12:31:00;;;;;;;4.20;3.67;;;23.50;81.60;;;;;;4962642;28;20474;-53
2022/08/02 12:33:28;;;;;;;4.57;3.78;;;23.50;81.80;;;;;;4951551;28;20284;-54
2022/08/02 12:35:55;;;;;;;3.75;3.35;;;23.40;81.70;;;;;;4959547;28;20118;-56
2022/08/02 12:38:21;;;;;;;4.03;3.55;;;23.40;81.60;;;;;;4959148;28;20034;-56
2022/08/02 12:40:47;;;;;;;3.50;3.20;;;23.40;81.60;;;;;;4959251;28;20057;-52
2022/08/02 12:43:23;;;;;;;3.90;3.17;;;23.40;81.60;;;;;;4961306;28;20027;-57
2022/08/02 12:45:55;;;;;;;3.67;3.30;;;23.40;81.70;;;;;;4957227;28;20097;-57
2022/08/02 12:48:35;;;;;;;3.67;3.35;;;23.40;81.60;;;;;;4964691;28;20037;-54
2022/08/02 12:51:17;;;;;;;3.28;2.97;;;23.40;81.60;;;;;;4963657;28;20137;-56
2022/08/02 12:53:43;;;;;;;3.83;3.20;;;23.40;81.60;;;;;;4961822;28;20076;-55
2022/08/02 12:56:09;;;;;;;3.83;2.63;;;23.40;81.60;;;;;;4961637;28;20030;-53
2022/08/02 12:58:51;;;;;;;4.05;3.20;;;23.30;81.50;;;;;;4961406;28;20072;-55
2022/08/02 13:01:22;;;;;;;2.80;2.60;;;23.30;81.60;;;;;;4958152;28;20113;-54